Aérodrome :
LOGIN :

S'inscrire | Disclaimer

   EN    FR    IT 

 










Légende :    VFR   VFR Marginal   IFR   IFR Intensif   IFR Très Intensif
Visi : 
Plafond : 
>= 8 km
>= 3000ft
5 à 8 km
1000 à 3000 ft
1500m à 5 km
500 à 1000 ft
800 à 1500m
200 à 500 ft
< 800m
< 200 ft
Symboles :   Orages  Brouillard  Fortes neiges  Fortes précipitations  Vent > 20 kt
SIGMETs :   Divers  Orages  Givrage  Turbulence  Onde Orograph.  Cendres Volcan.







- Altitude de l'aérodrome : 465 ft
- Code IATA : LEJ


EDDP - Leipzig Halle

DERNIER METAR :
  • 170420Z 23003KT CAVOK 15/14 Q1022 NOSIG

METARs EXPIRÉS :
  • 170350Z 21003KT CAVOK 15/14 Q1022 NOSIG
  • 170320Z VRB02KT CAVOK 15/14 Q1022 NOSIG
  • 170250Z 28003KT CAVOK 15/14 Q1022 NOSIG
  • 170220Z 26005KT CAVOK 15/14 Q1022 NOSIG
  • 170150Z 23004KT CAVOK 16/14 Q1022 NOSIG

TAF TAF EDDP
Valide du 17 à 00h jusqu'au 18 à 00h UTC


162300Z 1700/1724 VRB03KT CAVOK
PROB30
TEMPO 1702/1706 2500 BCFG
BECMG 1706/1709 09005KT
Pas de NOTAMs connus pour ce terrain.



MET'MAP, la Météo Aéronautique d'un coup d'oeil ! - Copyright ORBIFLY Décembre 2007 - Disclaimer

ORBIFLY MET'MAP TEAM :

Programmation & Développement : Alexandra Zaïnal
Conception & Développement : Baudouin d'Aumeries
Co-Programmation & Développement : Marc-Olivier Méhu
Soutien technique & logistique : Manuel Goepfert

Contact : metmap@orbifly.com




SOURCES & CREDITS :

   NOAA